createdAt,value
2023-05-12T00:00:58.560Z,61.47
2023-05-12T00:01:58.530Z,61.09
2023-05-12T00:02:58.533Z,60.90
2023-05-12T00:03:58.580Z,60.04
2023-05-12T00:04:58.542Z,60.42
2023-05-12T00:05:58.408Z,61.28
2023-05-12T00:06:58.359Z,60.61
2023-05-12T00:07:58.324Z,61.28
2023-05-12T00:08:58.289Z,60.61
2023-05-12T00:09:58.273Z,60.42
2023-05-12T00:10:58.237Z,60.23
2023-05-12T00:11:58.180Z,60.42
2023-05-12T00:12:58.154Z,60.52
2023-05-12T00:13:58.137Z,60.33
2023-05-12T00:14:58.082Z,60.42
2023-05-12T00:15:58.087Z,60.13
2023-05-12T00:16:58.113Z,60.04
2023-05-12T00:17:58.006Z,60.33
2023-05-12T00:18:57.973Z,60.23
2023-05-12T00:19:57.919Z,60.04
2023-05-12T00:20:57.878Z,60.61
2023-05-12T00:21:57.852Z,60.23
2023-05-12T00:22:57.817Z,60.20
2023-05-12T00:23:57.778Z,59.44
2023-05-12T00:24:57.745Z,58.95
2023-05-12T00:25:57.704Z,58.58
2023-05-12T00:26:57.680Z,58.10
2023-05-12T00:27:57.640Z,57.90
2023-05-12T00:28:57.630Z,58.48
2023-05-12T00:29:57.586Z,57.53
2023-05-12T00:30:57.538Z,57.33
2023-05-12T00:31:57.585Z,56.95
2023-05-12T00:32:57.503Z,56.67
2023-05-12T00:33:57.437Z,56.76
2023-05-12T00:34:57.407Z,57.04
2023-05-12T00:35:57.368Z,56.95
2023-05-12T00:36:57.352Z,56.85
2023-05-12T00:37:57.303Z,57.24
2023-05-12T00:38:57.270Z,56.57
2023-05-12T00:39:57.245Z,56.31
2023-05-12T00:40:57.205Z,56.50
2023-05-12T00:41:57.169Z,56.38
2023-05-12T00:42:57.130Z,56.67
2023-05-12T00:43:57.110Z,56.60
2023-05-12T00:44:57.067Z,56.12
2023-05-12T00:45:57.108Z,56.50
2023-05-12T00:46:57.015Z,56.88
2023-05-12T00:47:57.015Z,57.84
2023-05-12T00:48:56.930Z,56.88
2023-05-12T00:49:56.913Z,57.24
2023-05-12T00:50:56.865Z,57.24
2023-05-12T00:51:56.833Z,56.98
2023-05-12T00:52:56.802Z,56.79
2023-05-12T00:53:56.766Z,57.04
2023-05-12T00:54:56.744Z,56.76
2023-05-12T00:55:56.704Z,56.28
2023-05-12T00:56:56.666Z,55.61
2023-05-12T00:57:56.633Z,55.04
2023-05-12T00:58:56.597Z,55.13
2023-05-12T00:59:56.559Z,55.23
2023-05-12T01:00:56.571Z,54.94
2023-05-12T01:01:56.489Z,55.04
2023-05-12T01:02:56.521Z,54.18
2023-05-12T01:03:56.419Z,54.75
2023-05-12T01:04:56.387Z,55.42
2023-05-12T01:05:56.357Z,55.52
2023-05-12T01:06:56.319Z,55.23
2023-05-12T01:07:56.285Z,55.61
2023-05-12T01:08:56.250Z,54.75
2023-05-12T01:09:56.219Z,54.94
2023-05-12T01:10:56.189Z,54.08
2023-05-12T01:11:56.152Z,54.94
2023-05-12T01:12:56.112Z,55.04
2023-05-12T01:13:56.089Z,54.66
2023-05-12T01:14:56.087Z,54.27
2023-05-12T01:15:56.029Z,54.75
2023-05-12T01:16:56.055Z,55.42
2023-05-12T01:17:55.939Z,55.32
2023-05-12T01:18:55.951Z,54.75
2023-05-12T01:19:55.878Z,54.75
2023-05-12T01:20:55.847Z,54.30
2023-05-12T01:21:55.803Z,54.30
2023-05-12T01:22:55.782Z,54.11
2023-05-12T01:23:55.739Z,54.85
2023-05-12T01:24:55.720Z,54.97
2023-05-12T01:25:55.682Z,54.75
2023-05-12T01:26:55.651Z,54.27
2023-05-12T01:27:55.613Z,54.18
2023-05-12T01:28:55.569Z,54.85
2023-05-12T01:29:55.544Z,55.74
2023-05-12T01:30:55.635Z,56.02
2023-05-12T01:31:55.469Z,56.31
2023-05-12T01:32:55.527Z,56.21
2023-05-12T01:33:55.412Z,57.07
2023-05-12T01:34:55.362Z,56.85
2023-05-12T01:35:55.342Z,56.85
2023-05-12T01:36:55.298Z,56.09
2023-05-12T01:37:55.261Z,55.45
2023-05-12T01:38:55.233Z,55.99
2023-05-12T01:39:55.193Z,56.21
2023-05-12T01:40:55.165Z,56.09
2023-05-12T01:41:55.135Z,55.99
2023-05-12T01:42:55.095Z,55.80
2023-05-12T01:43:55.063Z,56.38
2023-05-12T01:44:55.027Z,55.71
2023-05-12T01:45:54.996Z,55.26
2023-05-12T01:46:55.002Z,55.90
2023-05-12T01:47:54.957Z,56.38
2023-05-12T01:48:54.887Z,56.28
2023-05-12T01:49:54.880Z,56.47
2023-05-12T01:50:54.823Z,56.38
2023-05-12T01:51:54.782Z,55.23
2023-05-12T01:52:54.747Z,55.42
2023-05-12T01:53:54.718Z,55.80
2023-05-12T01:54:54.681Z,54.85
2023-05-12T01:55:54.644Z,54.85
2023-05-12T01:56:54.613Z,54.18
2023-05-12T01:57:54.606Z,54.37
2023-05-12T01:58:54.549Z,54.47
2023-05-12T01:59:54.517Z,54.18
2023-05-12T02:00:54.467Z,54.27
2023-05-12T02:01:54.483Z,53.51
2023-05-12T02:02:54.530Z,53.51
2023-05-12T02:03:54.508Z,53.61
2023-05-12T02:04:54.340Z,53.22
2023-05-12T02:05:54.305Z,52.84
2023-05-12T02:06:54.282Z,52.55
2023-05-12T02:07:54.233Z,52.75
2023-05-12T02:08:54.200Z,52.08
2023-05-12T02:09:54.164Z,52.17
2023-05-12T02:10:54.130Z,51.79
2023-05-12T02:11:54.103Z,51.03
2023-05-12T02:12:54.067Z,50.45
2023-05-12T02:13:54.028Z,49.95
2023-05-12T02:14:54.004Z,49.57
2023-05-12T02:15:53.991Z,48.93
2023-05-12T02:16:53.925Z,48.44
2023-05-12T02:17:53.995Z,48.16
2023-05-12T02:18:53.909Z,48.54
2023-05-12T02:19:53.832Z,49.40
2023-05-12T02:20:53.792Z,48.93
2023-05-12T02:21:53.757Z,48.83
2023-05-12T02:22:53.733Z,49.40
2023-05-12T02:23:53.694Z,49.98
2023-05-12T02:24:53.655Z,49.59
2023-05-12T02:25:53.618Z,49.69
2023-05-12T02:26:53.596Z,49.59
2023-05-12T02:27:53.551Z,49.88
2023-05-12T02:28:53.540Z,50.16
2023-05-12T02:29:53.495Z,49.88
2023-05-12T02:30:53.461Z,50.55
2023-05-12T02:31:53.436Z,50.07
2023-05-12T02:32:53.412Z,51.21
2023-05-12T02:33:53.349Z,51.50
2023-05-12T02:34:53.324Z,51.79
2023-05-12T02:35:53.282Z,52.36
2023-05-12T02:36:53.245Z,54.27
2023-05-12T02:37:53.211Z,55.04
2023-05-12T02:38:53.176Z,53.89
2023-05-12T02:39:53.146Z,53.44
2023-05-12T02:40:53.107Z,52.55
2023-05-12T02:41:53.079Z,51.91
2023-05-12T02:42:53.040Z,52.20
2023-05-12T02:43:53.005Z,52.67
2023-05-12T02:44:52.978Z,52.58
2023-05-12T02:45:52.973Z,52.29
2023-05-12T02:46:52.905Z,52.10
2023-05-12T02:47:52.917Z,52.67
2023-05-12T02:48:52.855Z,53.06
2023-05-12T02:49:52.804Z,55.07
2023-05-12T02:50:52.771Z,55.83
2023-05-12T02:51:52.736Z,56.69
2023-05-12T02:52:52.706Z,56.21
2023-05-12T02:53:52.673Z,55.45
2023-05-12T02:54:52.636Z,54.59
2023-05-12T02:55:52.601Z,54.39
2023-05-12T02:56:52.566Z,54.88
2023-05-12T02:57:52.563Z,54.68
2023-05-12T02:58:52.507Z,56.60
2023-05-12T02:59:52.469Z,56.40
2023-05-12T03:01:03.051Z,57.07
2023-05-12T03:01:52.466Z,57.26
2023-05-12T03:02:52.429Z,57.75
2023-05-12T03:03:52.428Z,57.75
2023-05-12T03:04:52.298Z,57.65
2023-05-12T03:05:52.280Z,58.12
2023-05-12T03:06:52.236Z,59.08
2023-05-12T03:07:52.204Z,60.33
2023-05-12T03:08:52.160Z,59.94
2023-05-12T03:09:52.138Z,59.47
2023-05-12T03:10:52.099Z,59.47
2023-05-12T03:11:52.069Z,58.61
2023-05-12T03:12:52.030Z,58.41
2023-05-12T03:13:51.998Z,58.06
2023-05-12T03:14:51.961Z,58.12
2023-05-12T03:15:51.936Z,57.84
2023-05-12T03:16:51.937Z,58.54
2023-05-12T03:17:51.902Z,59.84
2023-05-12T03:18:51.936Z,61.28
2023-05-12T03:19:51.795Z,61.95
2023-05-12T03:20:51.769Z,62.14
2023-05-12T03:21:51.735Z,63.29
2023-05-12T03:22:51.718Z,64.53
2023-05-12T03:23:51.661Z,64.91
2023-05-12T03:24:51.636Z,64.53
2023-05-12T03:25:51.590Z,64.43
2023-05-12T03:26:51.560Z,63.67
2023-05-12T03:27:51.527Z,63.57
2023-05-12T03:28:51.502Z,63.86
2023-05-12T03:29:51.455Z,63.76
2023-05-12T03:30:51.423Z,63.67
2023-05-12T03:31:51.547Z,63.57
2023-05-12T03:32:51.393Z,63.19
2023-05-12T03:33:51.338Z,65.01
2023-05-12T03:34:51.294Z,63.96
2023-05-12T03:35:51.258Z,63.19
2023-05-12T03:36:51.254Z,62.71
2023-05-12T03:37:51.191Z,62.43
2023-05-12T03:38:51.155Z,61.57
2023-05-12T03:39:51.120Z,61.19
2023-05-12T03:40:51.085Z,61.76
2023-05-12T03:41:51.053Z,61.76
2023-05-12T03:42:51.017Z,63.86
2023-05-12T03:43:50.988Z,63.76
2023-05-12T03:44:50.947Z,63.39
2023-05-12T03:45:50.921Z,63.57
2023-05-12T03:46:50.927Z,63.57
2023-05-12T03:47:50.950Z,62.04
2023-05-12T03:48:50.815Z,61.38
2023-05-12T03:49:50.807Z,61.66
2023-05-12T03:50:50.754Z,61.85
2023-05-12T03:51:50.718Z,62.71
2023-05-12T03:52:50.683Z,62.71
2023-05-12T03:53:50.645Z,62.14
2023-05-12T03:54:50.637Z,60.80
2023-05-12T03:55:50.595Z,60.42
2023-05-12T03:56:50.545Z,61.66
2023-05-12T03:57:50.517Z,62.52
2023-05-12T03:58:50.481Z,62.33
2023-05-12T03:59:50.447Z,62.62
2023-05-12T04:00:50.421Z,61.85
2023-05-12T04:01:50.409Z,60.71
2023-05-12T04:02:50.501Z,59.56
2023-05-12T04:03:50.518Z,59.11
2023-05-12T04:04:50.274Z,59.78
2023-05-12T04:05:50.254Z,58.63
2023-05-12T04:06:50.211Z,57.58
2023-05-12T04:07:50.184Z,57.39
2023-05-12T04:08:50.156Z,59.01
2023-05-12T04:09:50.121Z,58.73
2023-05-12T04:10:50.075Z,60.61
2023-05-12T04:11:50.044Z,60.42
2023-05-12T04:12:50.015Z,60.06
2023-05-12T04:13:49.983Z,58.89
2023-05-12T04:14:49.943Z,58.41
2023-05-12T04:15:49.903Z,57.58
2023-05-12T04:16:50.020Z,58.80
2023-05-12T04:17:49.907Z,58.51
2023-05-12T04:18:49.943Z,57.77
2023-05-12T04:19:49.772Z,56.82
2023-05-12T04:20:49.742Z,55.67
2023-05-12T04:21:49.714Z,54.80
2023-05-12T04:22:49.666Z,54.71
2023-05-12T04:23:49.638Z,53.47
2023-05-12T04:24:49.603Z,53.18
2023-05-12T04:25:49.595Z,54.14
2023-05-12T04:26:49.538Z,56.88
2023-05-12T04:27:49.506Z,58.70
2023-05-12T04:28:49.472Z,59.75
2023-05-12T04:29:49.434Z,59.75
2023-05-12T04:30:49.396Z,59.56
2023-05-12T04:31:49.404Z,59.47
2023-05-12T04:32:49.382Z,59.56
2023-05-12T04:33:49.298Z,58.89
2023-05-12T04:34:49.264Z,58.70
2023-05-12T04:35:49.234Z,57.75
2023-05-12T04:36:49.200Z,56.69
2023-05-12T04:37:49.200Z,57.07
2023-05-12T04:38:49.128Z,58.03
2023-05-12T04:39:49.113Z,57.36
2023-05-12T04:40:49.074Z,56.88
2023-05-12T04:41:49.048Z,56.40
2023-05-12T04:42:48.996Z,55.57
2023-05-12T04:44:48.942Z,53.37
2023-05-12T04:45:48.929Z,53.34
2023-05-12T04:46:48.860Z,53.34
2023-05-12T04:47:48.867Z,54.33
2023-05-12T04:48:48.797Z,56.21
2023-05-12T04:49:48.763Z,56.98
2023-05-12T04:50:48.737Z,57.01
2023-05-12T04:51:48.696Z,56.40
2023-05-12T04:52:48.661Z,56.34
2023-05-12T04:53:48.627Z,55.96
2023-05-12T04:54:48.598Z,55.00
2023-05-12T04:55:48.559Z,54.04
2023-05-12T04:56:48.521Z,55.38
2023-05-12T04:57:48.490Z,56.43
2023-05-12T04:58:48.459Z,56.43
2023-05-12T04:59:48.421Z,56.15
2023-05-12T05:00:48.388Z,54.90
2023-05-12T05:01:48.400Z,53.85
2023-05-12T05:02:48.406Z,53.75
2023-05-12T05:03:48.364Z,53.37
2023-05-12T05:04:48.264Z,53.66
2023-05-12T05:05:48.223Z,53.37
2023-05-12T05:06:48.198Z,54.14
2023-05-12T05:07:48.157Z,54.14
2023-05-12T05:08:48.122Z,54.04
2023-05-12T05:09:48.090Z,54.14
2023-05-12T05:10:48.068Z,56.15
2023-05-12T05:11:48.024Z,56.82
2023-05-12T05:12:47.985Z,57.29
2023-05-12T05:13:47.960Z,57.20
2023-05-12T05:14:47.927Z,57.01
2023-05-12T05:15:47.934Z,57.97
2023-05-12T05:16:47.857Z,58.06
2023-05-12T05:17:47.855Z,58.34
2023-05-12T05:18:47.830Z,58.25
2023-05-12T05:19:57.139Z,58.44
2023-05-12T05:20:56.783Z,59.69
2023-05-12T05:21:47.682Z,60.83
2023-05-12T05:22:47.652Z,63.60
2023-05-12T05:23:47.624Z,63.32
2023-05-12T05:24:47.590Z,63.70
2023-05-12T05:25:47.554Z,64.37
2023-05-12T05:26:47.516Z,63.89
2023-05-12T05:27:47.506Z,62.46
2023-05-12T05:28:47.451Z,63.42
2023-05-12T05:29:47.419Z,63.51
2023-05-12T05:30:47.388Z,62.74
2023-05-12T05:31:47.467Z,63.23
2023-05-12T05:32:47.372Z,65.42
2023-05-12T05:33:47.294Z,66.86
2023-05-12T05:34:47.254Z,68.29
2023-05-12T05:35:47.216Z,69.06
2023-05-12T05:36:47.189Z,70.78
2023-05-12T05:37:47.154Z,71.07
2023-05-12T05:38:47.111Z,70.30
2023-05-12T05:39:47.082Z,70.11
2023-05-12T05:40:53.798Z,70.21
2023-05-12T05:41:47.054Z,70.43
2023-05-12T05:42:46.982Z,69.64
2023-05-12T05:43:46.947Z,69.44
2023-05-12T05:44:46.940Z,70.01
2023-05-12T05:45:46.886Z,70.78
2023-05-12T05:46:46.882Z,71.93
2023-05-12T05:47:46.841Z,71.01
2023-05-12T05:48:46.781Z,71.11
2023-05-12T05:49:46.755Z,72.69
2023-05-12T05:50:46.743Z,73.59
2023-05-12T05:51:46.680Z,73.08
2023-05-12T05:52:46.648Z,73.17
2023-05-12T05:53:46.616Z,72.83
2023-05-12T05:54:46.587Z,72.44
2023-05-12T05:55:46.556Z,72.83
2023-05-12T05:56:46.518Z,72.54
2023-05-12T05:57:46.488Z,72.54
2023-05-12T05:58:46.451Z,75.37
2023-05-12T05:59:46.419Z,75.37
2023-05-12T06:00:46.383Z,74.80
2023-05-12T06:01:46.425Z,75.60
2023-05-12T06:02:46.825Z,74.74
2023-05-12T06:03:46.356Z,74.36
2023-05-12T06:04:46.250Z,74.84
2023-05-12T06:05:46.218Z,75.02
2023-05-12T06:06:46.177Z,75.70
2023-05-12T06:07:46.163Z,76.08
2023-05-12T06:08:46.181Z,76.27
2023-05-12T06:09:46.083Z,77.00
2023-05-12T06:10:46.044Z,76.52
2023-05-12T06:11:46.017Z,77.28
2023-05-12T06:12:45.979Z,77.42
2023-05-12T06:13:45.946Z,77.48
2023-05-12T06:14:45.912Z,77.23
2023-05-12T06:15:45.886Z,77.38
2023-05-12T06:16:45.900Z,77.42
2023-05-12T06:17:45.829Z,77.23
2023-05-12T06:18:45.812Z,77.23
2023-05-12T06:19:45.751Z,78.14
2023-05-12T06:20:45.753Z,77.00
2023-05-12T06:21:45.686Z,79.29
2023-05-12T06:22:45.649Z,78.53
2023-05-12T06:23:45.613Z,77.70
2023-05-12T06:24:45.579Z,77.95
2023-05-12T06:25:45.546Z,78.09
2023-05-12T06:26:45.505Z,78.28
2023-05-12T06:27:45.477Z,77.80
2023-05-12T06:28:45.444Z,79.33
2023-05-12T06:29:45.421Z,79.72
2023-05-12T06:30:45.377Z,79.52
2023-05-12T06:31:45.379Z,79.62
2023-05-12T06:32:45.367Z,79.24
2023-05-12T06:33:45.285Z,79.43
2023-05-12T06:34:45.243Z,79.43
2023-05-12T06:35:45.211Z,79.05
2023-05-12T06:36:45.189Z,79.14
2023-05-12T06:37:45.145Z,79.33
2023-05-12T06:38:45.115Z,79.62
2023-05-12T06:39:45.095Z,79.72
2023-05-12T06:40:45.057Z,80.00
2023-05-12T06:41:45.011Z,80.48
2023-05-12T06:42:44.986Z,80.77
2023-05-12T06:43:44.949Z,80.67
2023-05-12T06:44:44.926Z,80.96
2023-05-12T06:45:44.917Z,80.00
2023-05-12T06:46:44.906Z,79.72
2023-05-12T06:47:44.820Z,80.00
2023-05-12T06:48:44.780Z,80.10
2023-05-12T06:49:44.752Z,81.25
2023-05-12T06:50:44.713Z,81.54
2023-05-12T06:51:44.680Z,80.96
2023-05-12T06:52:44.662Z,81.05
2023-05-12T06:53:44.619Z,81.54
2023-05-12T06:54:44.587Z,81.34
2023-05-12T06:55:44.548Z,81.44
2023-05-12T06:56:44.526Z,81.92
2023-05-12T06:57:44.482Z,81.54
2023-05-12T06:58:44.454Z,81.63
2023-05-12T06:59:44.437Z,81.73
2023-05-12T07:00:44.385Z,81.82
2023-05-12T07:01:44.477Z,81.25
2023-05-12T07:02:44.350Z,81.54
2023-05-12T07:03:44.293Z,81.44
2023-05-12T07:04:44.247Z,82.49
2023-05-12T07:05:44.258Z,81.44
2023-05-12T07:06:44.179Z,81.25
2023-05-12T07:07:44.147Z,82.68
2023-05-12T07:08:44.126Z,83.83
2023-05-12T07:09:44.082Z,83.45
2023-05-12T07:10:44.063Z,84.02
2023-05-12T07:11:44.011Z,82.30
2023-05-12T07:12:43.985Z,82.59
2023-05-12T07:13:43.954Z,83.45
2023-05-12T07:14:43.910Z,82.59
2023-05-12T07:15:43.917Z,82.49
2023-05-12T07:16:43.849Z,82.97
2023-05-12T07:17:43.953Z,82.59
2023-05-12T07:18:43.792Z,81.92
2023-05-12T07:19:43.751Z,82.11
2023-05-12T07:20:43.720Z,82.40
2023-05-12T07:21:43.675Z,82.97
2023-05-12T07:22:43.652Z,83.36
2023-05-12T07:23:43.614Z,83.73
2023-05-12T07:24:43.589Z,84.22
2023-05-12T07:25:43.585Z,84.50
2023-05-12T07:26:43.514Z,84.59
2023-05-12T07:27:43.480Z,84.88
2023-05-12T07:28:43.446Z,83.54
2023-05-12T07:29:43.419Z,84.41
2023-05-12T07:30:43.380Z,83.64
2023-05-12T07:31:43.378Z,83.01
2023-05-12T07:32:43.396Z,83.49
2023-05-12T07:33:43.289Z,84.35
2023-05-12T07:34:43.252Z,84.74
2023-05-12T07:35:43.234Z,84.55
2023-05-12T07:36:43.190Z,84.35
2023-05-12T07:37:43.145Z,85.12
2023-05-12T07:38:43.124Z,85.46
2023-05-12T07:39:43.084Z,85.69
2023-05-12T07:40:43.051Z,85.79
2023-05-12T07:41:43.016Z,87.23
2023-05-12T07:42:42.988Z,85.69
2023-05-12T07:43:42.971Z,86.08
2023-05-12T07:44:42.920Z,86.65
2023-05-12T07:45:42.887Z,85.69
2023-05-12T07:46:42.924Z,84.83
2023-05-12T07:47:42.861Z,84.55
2023-05-12T07:48:42.789Z,85.69
2023-05-12T07:49:42.869Z,85.41
2023-05-12T07:50:42.724Z,86.65
2023-05-12T07:51:42.687Z,85.69
2023-05-12T07:52:42.657Z,87.03
2023-05-12T07:53:42.617Z,87.23
2023-05-12T07:54:42.595Z,88.37
2023-05-12T07:55:42.562Z,88.28
2023-05-12T07:56:42.532Z,87.90
2023-05-12T07:57:42.489Z,88.09
2023-05-12T07:58:42.472Z,88.18
2023-05-12T07:59:42.426Z,87.32
2023-05-12T08:00:42.391Z,89.09
2023-05-12T08:01:42.442Z,88.03
2023-05-12T08:02:42.503Z,89.47
2023-05-12T08:03:42.410Z,88.23
2023-05-12T08:04:44.445Z,88.32
2023-05-12T08:05:42.234Z,90.33
2023-05-12T08:06:42.192Z,90.05
2023-05-12T08:07:42.181Z,89.47
2023-05-12T08:08:42.129Z,88.51
2023-05-12T08:09:42.092Z,90.05
2023-05-12T08:10:42.108Z,89.47
2023-05-12T08:11:43.910Z,89.47
2023-05-12T08:12:42.019Z,89.76
2023-05-12T08:13:41.970Z,91.19
2023-05-12T08:14:41.936Z,90.43
2023-05-12T08:15:41.907Z,90.33
2023-05-12T08:16:41.885Z,91.67
2023-05-12T08:17:41.992Z,91.00
2023-05-12T08:18:41.824Z,90.43
2023-05-12T08:19:41.982Z,89.76
2023-05-12T08:20:41.732Z,90.53
2023-05-12T08:21:41.856Z,89.61
2023-05-12T08:22:41.696Z,90.28
2023-05-12T08:23:41.646Z,91.72
2023-05-12T08:24:41.613Z,91.05
2023-05-12T08:25:41.576Z,92.39
2023-05-12T08:26:41.548Z,90.86
2023-05-12T08:27:41.519Z,91.34
2023-05-12T08:28:41.477Z,91.53
2023-05-12T08:29:41.447Z,91.34
2023-05-12T08:30:41.443Z,93.16
2023-05-12T08:31:41.412Z,91.43
2023-05-12T08:32:41.368Z,93.35
2023-05-12T08:33:41.310Z,92.87
2023-05-12T08:34:41.289Z,92.39
2023-05-12T08:35:41.278Z,91.57
2023-05-12T08:36:41.215Z,93.78
2023-05-12T08:37:41.339Z,93.11
2023-05-12T08:38:41.150Z,92.82
2023-05-12T08:39:41.129Z,91.86
2023-05-12T08:40:41.085Z,93.78
2023-05-12T08:41:41.072Z,92.54
2023-05-12T08:42:41.021Z,92.72
2023-05-12T08:43:40.997Z,92.54
2023-05-12T08:44:40.957Z,92.44
2023-05-12T08:45:40.950Z,93.40
2023-05-12T08:46:41.013Z,93.97
2023-05-12T08:47:40.918Z,93.88
2023-05-12T08:48:40.828Z,93.25
2023-05-12T08:49:40.796Z,93.25
2023-05-12T08:50:40.767Z,92.58
2023-05-12T08:51:40.746Z,93.73
2023-05-12T08:52:40.699Z,95.17
2023-05-12T08:53:40.737Z,93.82
2023-05-12T08:54:52.241Z,93.35
2023-05-12T08:55:40.601Z,93.15
2023-05-12T08:57:40.535Z,93.35
2023-05-12T08:58:41.993Z,93.63
2023-05-12T08:59:40.476Z,94.21
2023-05-12T09:00:40.563Z,93.15
2023-05-12T09:01:40.488Z,92.86
2023-05-12T09:02:52.102Z,92.96
2023-05-12T09:03:40.375Z,93.73
2023-05-12T09:04:40.352Z,93.68
2023-05-12T09:05:40.299Z,93.73
2023-05-12T09:06:40.287Z,93.77
2023-05-12T09:07:40.222Z,95.12
2023-05-12T09:08:40.192Z,95.41
2023-05-12T09:09:40.168Z,94.26
2023-05-12T09:10:40.134Z,93.73
2023-05-12T09:11:40.097Z,94.45
2023-05-12T09:12:40.058Z,95.03
2023-05-12T09:13:40.033Z,94.07
2023-05-12T09:14:40.006Z,94.26
2023-05-12T09:15:39.981Z,95.12
2023-05-12T09:16:39.949Z,94.74
2023-05-12T09:17:39.944Z,94.07
2023-05-12T09:18:39.918Z,94.45
2023-05-12T09:19:39.842Z,94.26
2023-05-12T09:20:39.831Z,94.16
2023-05-12T09:21:39.780Z,94.11
2023-05-12T09:22:39.748Z,95.03
2023-05-12T09:23:39.726Z,94.59
2023-05-12T09:24:39.709Z,94.88
2023-05-12T09:25:39.688Z,94.98
2023-05-12T09:26:39.640Z,94.98
2023-05-12T09:27:39.590Z,94.88
2023-05-12T09:28:39.568Z,94.49
2023-05-12T09:29:45.350Z,94.64
2023-05-12T09:30:39.500Z,94.78
2023-05-12T09:31:39.570Z,95.17
2023-05-12T09:32:39.475Z,94.69
2023-05-12T09:33:39.407Z,94.78
2023-05-12T09:34:39.391Z,95.17
2023-05-12T09:35:39.346Z,94.49
2023-05-12T09:36:40.076Z,95.07
2023-05-12T09:37:39.280Z,94.59
2023-05-12T09:38:39.248Z,93.92
2023-05-12T09:39:39.231Z,93.87
2023-05-12T09:40:39.195Z,94.06
2023-05-12T09:41:39.172Z,94.16
2023-05-12T09:42:39.133Z,94.45
2023-05-12T09:43:39.094Z,93.87
2023-05-12T09:44:39.063Z,94.54
2023-05-12T09:45:39.271Z,93.68
2023-05-12T09:46:38.999Z,94.16
2023-05-12T09:47:39.011Z,94.26
2023-05-12T09:48:38.952Z,94.35
2023-05-12T09:49:38.925Z,94.06
2023-05-12T09:50:47.177Z,94.06
2023-05-12T09:51:38.846Z,93.87
2023-05-12T09:52:38.830Z,93.19
2023-05-12T09:53:38.786Z,94.06
2023-05-12T09:54:38.768Z,94.45
2023-05-12T09:55:38.735Z,94.06
2023-05-12T09:56:38.693Z,94.45
2023-05-12T09:57:38.697Z,94.26
2023-05-12T09:58:38.643Z,94.93
2023-05-12T09:59:39.339Z,94.54
2023-05-12T10:00:58.548Z,94.06
2023-05-12T10:01:38.569Z,93.96
2023-05-12T10:02:38.543Z,94.64
2023-05-12T10:03:38.475Z,94.83
2023-05-12T10:04:38.500Z,93.87
2023-05-12T10:05:38.408Z,94.35
2023-05-12T10:06:38.386Z,94.88
2023-05-12T10:07:38.357Z,93.68
2023-05-12T10:08:38.328Z,93.82
2023-05-12T10:09:38.289Z,93.82
2023-05-12T10:10:38.257Z,94.21
2023-05-12T10:11:38.228Z,94.01
2023-05-12T10:12:38.194Z,94.59
2023-05-12T10:13:38.169Z,93.82
2023-05-12T10:14:38.156Z,93.91
2023-05-12T10:15:38.112Z,93.53
2023-05-12T10:16:38.103Z,94.15
2023-05-12T10:17:38.064Z,93.68
2023-05-12T10:18:38.045Z,93.00
2023-05-12T10:19:37.983Z,93.68
2023-05-12T10:20:37.951Z,93.77
2023-05-12T10:21:37.917Z,93.00
2023-05-12T10:22:37.898Z,92.43
2023-05-12T10:23:38.260Z,92.61
2023-05-12T10:24:37.840Z,93.00
2023-05-12T10:25:37.802Z,92.43
2023-05-12T10:26:38.832Z,92.61
2023-05-12T10:27:37.778Z,92.43
2023-05-12T10:28:37.708Z,92.43
2023-05-12T10:29:37.766Z,93.48
2023-05-12T10:30:37.649Z,92.66
2023-05-12T10:31:37.640Z,93.05
2023-05-12T10:32:37.613Z,92.28
2023-05-12T10:33:37.556Z,92.18
2023-05-12T10:34:37.559Z,91.70
2023-05-12T10:35:37.494Z,91.51
2023-05-12T10:36:37.470Z,91.31
2023-05-12T10:37:37.439Z,91.31
2023-05-12T10:38:37.447Z,92.18
2023-05-12T10:39:37.386Z,91.31
2023-05-12T10:40:37.364Z,91.22
2023-05-12T10:41:37.316Z,91.89
2023-05-12T10:42:37.298Z,92.38
2023-05-12T10:43:37.264Z,92.95
2023-05-12T10:44:37.235Z,92.38
2023-05-12T10:45:37.220Z,90.83
2023-05-12T10:46:37.211Z,92.18
2023-05-12T10:47:37.195Z,91.51
2023-05-12T10:48:37.111Z,91.41
2023-05-12T10:49:37.081Z,90.64
2023-05-12T10:50:37.062Z,90.78
2023-05-12T10:51:37.019Z,90.26
2023-05-12T10:52:36.993Z,89.68
2023-05-12T10:53:48.235Z,89.72
2023-05-12T10:54:36.930Z,91.07
2023-05-12T10:55:37.049Z,92.22
2023-05-12T10:56:37.072Z,91.41
2023-05-12T10:57:37.152Z,92.56
2023-05-12T10:58:37.551Z,90.06
2023-05-12T10:59:37.120Z,89.96
2023-05-12T11:00:37.190Z,89.58
2023-05-12T11:01:37.630Z,90.20
2023-05-12T11:02:38.581Z,88.85
2023-05-12T11:03:37.394Z,88.46
2023-05-12T11:04:37.546Z,90.24
2023-05-12T11:05:37.722Z,88.51
2023-05-12T11:06:36.646Z,88.65
2023-05-12T11:07:37.507Z,88.75
2023-05-12T11:08:37.712Z,88.93
2023-05-12T11:09:40.471Z,88.65
2023-05-12T11:10:36.512Z,88.69
2023-05-12T11:11:36.542Z,87.10
2023-05-12T11:12:36.740Z,85.37
2023-05-12T11:13:36.388Z,86.04
2023-05-12T11:14:36.357Z,84.94
2023-05-12T11:15:36.321Z,84.79
2023-05-12T11:16:36.320Z,85.23
2023-05-12T11:17:36.299Z,84.65
2023-05-12T11:18:36.261Z,85.61
2023-05-12T11:19:36.215Z,85.46
2023-05-12T11:20:36.184Z,83.88
2023-05-12T11:21:36.153Z,84.50
2023-05-12T11:22:36.150Z,83.88
2023-05-12T11:23:36.103Z,84.11
2023-05-12T11:24:36.069Z,83.92
2023-05-12T11:25:36.112Z,83.63
2023-05-12T11:26:36.031Z,84.11
2023-05-12T11:27:35.987Z,84.89
2023-05-12T11:28:35.956Z,84.41
2023-05-12T11:29:35.929Z,82.76
2023-05-12T11:30:35.904Z,84.21
2023-05-12T11:31:35.942Z,83.73
2023-05-12T11:32:35.860Z,83.34
2023-05-12T11:33:35.817Z,83.34
2023-05-12T11:34:35.799Z,84.21
2023-05-12T11:35:35.765Z,83.73
2023-05-12T11:36:35.738Z,84.01
2023-05-12T11:37:35.707Z,82.86
2023-05-12T11:38:35.684Z,84.41
2023-05-12T11:39:35.653Z,82.57
2023-05-12T11:40:35.627Z,82.57
2023-05-12T11:41:35.594Z,84.01
2023-05-12T11:42:35.565Z,83.83
2023-05-12T11:43:35.530Z,84.50
2023-05-12T11:44:35.509Z,84.21
2023-05-12T11:45:35.548Z,82.57
2023-05-12T11:46:35.449Z,84.01
2023-05-12T11:47:35.470Z,84.01
2023-05-12T11:48:35.392Z,84.21
2023-05-12T11:49:35.474Z,83.73
2023-05-12T11:50:35.338Z,84.11
2023-05-12T11:51:35.311Z,84.41
2023-05-12T11:52:35.277Z,84.01
2023-05-12T11:53:35.251Z,83.73
2023-05-12T11:54:35.235Z,84.59
2023-05-12T11:55:35.214Z,84.01
2023-05-12T11:56:35.174Z,82.76
2023-05-12T11:57:35.135Z,84.01
2023-05-12T11:58:35.757Z,83.44
2023-05-12T11:59:35.109Z,82.38
2023-05-12T12:00:35.073Z,83.05
2023-05-12T12:01:35.023Z,83.34
2023-05-12T12:02:35.064Z,82.86
2023-05-12T12:03:35.056Z,81.90
2023-05-12T12:04:35.120Z,82.48
2023-05-12T12:05:34.951Z,83.58
2023-05-12T12:06:34.902Z,83.87
2023-05-12T12:07:34.881Z,83.39
2023-05-12T12:08:34.842Z,83.96
2023-05-12T12:09:34.802Z,84.16
2023-05-12T12:10:34.766Z,82.81
2023-05-12T12:11:34.750Z,82.81
2023-05-12T12:12:34.724Z,84.16
2023-05-12T12:13:34.687Z,81.93
2023-05-12T12:14:34.656Z,82.75
2023-05-12T12:15:34.633Z,83.62
2023-05-12T12:16:34.650Z,82.32
2023-05-12T12:17:34.682Z,82.13
2023-05-12T12:18:34.595Z,81.45
2023-05-12T12:19:34.530Z,82.03
2023-05-12T12:20:34.493Z,82.26
2023-05-12T12:21:34.511Z,82.65
2023-05-12T12:22:34.793Z,81.49
2023-05-12T12:23:44.105Z,82.40
2023-05-12T12:24:34.390Z,82.21
2023-05-12T12:25:34.345Z,81.82
2023-05-12T12:26:34.325Z,81.34
2023-05-12T12:27:34.295Z,80.86
2023-05-12T12:28:34.283Z,81.73
2023-05-12T12:29:34.237Z,82.79
2023-05-12T12:30:34.216Z,82.89
2023-05-12T12:31:34.207Z,82.89
2023-05-12T12:32:34.191Z,82.98
2023-05-12T12:33:34.124Z,82.21
2023-05-12T12:34:34.101Z,82.98
2023-05-12T12:35:34.073Z,82.69
2023-05-12T12:36:34.041Z,83.08
2023-05-12T12:37:34.104Z,83.03
2023-05-12T12:38:34.014Z,81.77
2023-05-12T12:39:33.962Z,82.21
2023-05-12T12:40:33.934Z,81.53
2023-05-12T12:41:33.902Z,81.57
2023-05-12T12:42:33.867Z,81.53
2023-05-12T12:43:33.847Z,81.57
2023-05-12T12:44:33.821Z,81.57
2023-05-12T12:45:33.799Z,82.06
2023-05-12T12:46:33.782Z,81.57
2023-05-12T12:47:33.767Z,81.48
2023-05-12T12:48:33.713Z,81.57
2023-05-12T12:49:33.685Z,81.67
2023-05-12T12:50:33.656Z,81.48
2023-05-12T12:51:44.479Z,81.42
2023-05-12T12:52:33.599Z,81.48
2023-05-12T12:53:33.575Z,81.77
2023-05-12T12:54:33.549Z,81.52